Time;durP1;ratioP1;P1;durP2;ratioP2;P2;SDS_P1;SDS_P2;PMS_P1;PMS_P2;Temp;Humidity;BMP_temperature;BMP_pressure;BME280_temperature;BME280_humidity;BME280_pressure;Samples;Min_cycle;Max_cycle;Signal;HPM_P1;HPM_P2
2021/11/29 00:01:56;;;;;;;;;;;;;;;7.78;99.14;98652.39;1752202;82;20185;-69
2021/11/29 00:04:24;;;;;;;;;;;;;;;7.79;99.11;98646.72;1752160;82;20197;-72
2021/11/29 00:06:54;;;;;;;;;;;;;;;7.79;99.13;98641.27;1752142;81;20161;-72
2021/11/29 00:09:23;;;;;;;;;;;;;;;7.81;99.23;98650.09;1752122;82;20261;-72
2021/11/29 00:11:53;;;;;;;;;;;;;;;7.79;99.28;98643.16;1752073;82;20221;-73
2021/11/29 00:14:21;;;;;;;;;;;;;;;7.82;99.33;98638.66;1752063;82;20213;-73
2021/11/29 00:16:52;;;;;;;;;;;;;;;7.83;99.34;98631.63;1666206;86;20190;-71
2021/11/29 00:19:20;;;;;;;;;;;;;;;7.85;99.32;98629.50;1666232;86;20158;-71
2021/11/29 00:21:50;;;;;;;;;;;;;;;7.85;99.32;98617.23;1665140;85;20202;-71
2021/11/29 00:24:18;;;;;;;;;;;;;;;7.85;99.39;98614.51;1658576;86;20166;-71
2021/11/29 00:26:48;;;;;;;;;;;;;;;7.87;99.49;98610.20;1658906;86;20210;-71
2021/11/29 00:29:16;;;;;;;;;;;;;;;7.87;99.54;98600.13;1659015;86;20190;-73
2021/11/29 00:31:45;;;;;;;;;;;;;;;7.91;99.58;98593.69;1660947;86;20480;-71
2021/11/29 00:34:13;;;;;;;;;;;;;;;7.92;99.63;98601.65;1670537;84;20168;-71
2021/11/29 00:36:43;;;;;;;;;;;;;;;7.94;99.68;98606.34;1716413;83;20164;-72
2021/11/29 00:39:11;;;;;;;;;;;;;;;7.97;99.76;98598.77;1716543;84;20259;-73
2021/11/29 00:41:41;;;;;;;;;;;;;;;7.97;99.84;98590.59;1716189;83;20157;-72
2021/11/29 00:44:09;;;;;;;;;;;;;;;7.98;99.91;98579.98;1716181;84;20255;-72
2021/11/29 00:46:38;;;;;;;;;;;;;;;7.99;99.98;98579.77;1716411;84;20210;-71
2021/11/29 00:49:07;;;;;;;;;;;;;;;8.04;100.00;98577.72;1716229;84;20227;-72
2021/11/29 00:51:36;;;;;;;;;;;;;;;8.07;100.00;98569.09;1716288;82;20180;-70
2021/11/29 00:54:04;;;;;;;;;;;;;;;8.07;100.00;98559.55;1716110;84;20327;-72
2021/11/29 00:56:33;;;;;;;;;;;;;;;8.09;100.00;98554.70;1716266;84;20223;-72
2021/11/29 00:59:02;;;;;;;;;;;;;;;8.10;100.00;98544.09;1716453;83;20199;-73
2021/11/29 01:01:30;;;;;;;;;;;;;;;8.13;100.00;98542.27;1716279;84;20552;-71
2021/11/29 01:03:59;;;;;;;;;;;;;;;8.16;100.00;98544.02;1716199;84;20160;-71
2021/11/29 01:06:27;;;;;;;;;;;;;;;8.18;100.00;98551.97;1716298;84;20160;-73
2021/11/29 01:08:55;;;;;;;;;;;;;;;8.19;100.00;98544.09;1716310;84;20466;-72
2021/11/29 01:11:23;;;;;;;;;;;;;;;8.17;100.00;98534.77;1716211;84;20185;-72
2021/11/29 01:13:52;;;;;;;;;;;;;;;8.17;100.00;98533.94;1716377;84;20490;-72
2021/11/29 01:16:21;;;;;;;;;;;;;;;8.19;100.00;98534.01;1716350;84;20203;-72
2021/11/29 01:18:49;;;;;;;;;;;;;;;8.23;100.00;98535.22;1716339;84;20204;-73
2021/11/29 01:21:20;;;;;;;;;;;;;;;8.25;100.00;98528.17;1716381;84;20224;-70
2021/11/29 01:23:49;;;;;;;;;;;;;;;8.27;100.00;98526.88;1742165;82;20173;-72
2021/11/29 01:26:17;;;;;;;;;;;;;;;8.27;100.00;98513.77;1711072;84;20167;-72
2021/11/29 01:28:45;;;;;;;;;;;;;;;8.29;100.00;98507.55;1715907;83;20180;-75
2021/11/29 01:31:13;;;;;;;;;;;;;;;8.29;100.00;98506.19;1752063;81;20182;-73
2021/11/29 01:33:41;;;;;;;;;;;;;;;8.32;100.00;98516.64;1752186;82;20197;-71
2021/11/29 01:36:10;;;;;;;;;;;;;;;8.33;100.00;98506.06;1752079;82;20150;-72
2021/11/29 01:38:38;;;;;;;;;;;;;;;8.35;100.00;98503.94;1752044;82;20487;-73
2021/11/29 01:41:07;;;;;;;;;;;;;;;8.36;100.00;98504.23;1752037;82;20162;-73
2021/11/29 01:43:35;;;;;;;;;;;;;;;8.37;100.00;98496.35;1752094;82;20237;-73
2021/11/29 01:46:03;;;;;;;;;;;;;;;8.42;100.00;98495.12;1752046;82;20225;-74
2021/11/29 01:48:34;;;;;;;;;;;;;;;8.43;100.00;98481.78;1752076;81;20166;-71
2021/11/29 01:51:03;;;;;;;;;;;;;;;8.46;100.00;98479.16;1752500;81;20194;-72
2021/11/29 01:53:32;;;;;;;;;;;;;;;8.45;100.00;98477.47;1752060;82;20177;-69
2021/11/29 01:56:01;;;;;;;;;;;;;;;8.44;100.00;98475.27;1752366;82;20188;-70
2021/11/29 01:58:31;;;;;;;;;;;;;;;8.45;100.00;98472.00;1752002;82;20249;-71
2021/11/29 02:01:03;;;;;;;;;;;;;;;8.49;100.00;98469.98;1752056;81;20181;-71
2021/11/29 02:03:32;;;;;;;;;;;;;;;8.51;100.00;98471.95;1752032;82;20197;-71
2021/11/29 02:06:00;;;;;;;;;;;;;;;8.55;100.00;98472.31;1752087;82;20512;-71
2021/11/29 02:08:31;;;;;;;;;;;;;;;8.56;100.00;98464.42;1752060;82;20547;-71
2021/11/29 02:11:00;;;;;;;;;;;;;;;8.55;100.00;98454.58;1752057;82;20177;-71
2021/11/29 02:13:29;;;;;;;;;;;;;;;8.55;100.00;98445.84;1752222;82;20448;-70
2021/11/29 02:15:58;;;;;;;;;;;;;;;8.61;100.00;98450.08;1752080;81;20162;-71
2021/11/29 02:18:28;;;;;;;;;;;;;;;8.63;100.00;98439.77;1752045;82;20150;-70
2021/11/29 02:21:07;;;;;;;;;;;;;;;8.65;100.00;98441.19;1752033;82;20192;-70
2021/11/29 02:23:38;;;;;;;;;;;;;;;8.65;100.00;98443.09;1751949;81;20185;-70
2021/11/29 02:26:07;;;;;;;;;;;;;;;8.64;100.00;98444.16;1751626;82;20216;-71
2021/11/29 02:28:37;;;;;;;;;;;;;;;8.63;100.00;98435.66;1752048;82;20173;-70
2021/11/29 02:31:08;;;;;;;;;;;;;;;8.63;100.00;98439.23;1752039;82;20510;-71
2021/11/29 02:33:36;;;;;;;;;;;;;;;8.65;100.00;98436.27;1752043;81;20149;-70
2021/11/29 02:36:05;;;;;;;;;;;;;;;8.65;100.00;98429.44;1752001;81;20190;-70
2021/11/29 02:38:34;;;;;;;;;;;;;;;8.67;100.00;98435.50;1752142;82;20154;-72
2021/11/29 02:41:02;;;;;;;;;;;;;;;8.68;100.00;98425.70;1752393;81;20250;-72
2021/11/29 02:43:30;;;;;;;;;;;;;;;8.67;100.00;98413.13;1752098;81;20218;-71
2021/11/29 02:45:59;;;;;;;;;;;;;;;8.68;100.00;98415.33;1752132;81;20266;-71
2021/11/29 02:48:48;;;;;;;;;;;;;;;8.70;100.00;98418.12;1752154;82;20185;-71
2021/11/29 02:51:33;;;;;;;;;;;;;;;8.71;100.00;98410.23;1752107;82;20483;-72
2021/11/29 02:54:05;;;;;;;;;;;;;;;8.73;100.00;98396.34;1752118;82;20205;-73
2021/11/29 02:56:37;;;;;;;;;;;;;;;8.74;100.00;98396.64;1752121;82;20157;-72
2021/11/29 02:59:08;;;;;;;;;;;;;;;8.71;100.00;98388.38;1752072;82;20150;-71
2021/11/29 03:01:38;;;;;;;;;;;;;;;8.72;100.00;98389.22;1752199;82;20181;-72
2021/11/29 03:04:07;;;;;;;;;;;;;;;8.71;100.00;98393.84;1752039;82;20253;-70
2021/11/29 03:06:36;;;;;;;;;;;;;;;8.72;100.00;98382.39;1752209;82;20256;-71
2021/11/29 03:09:06;;;;;;;;;;;;;;;8.73;100.00;98379.96;1752146;82;20161;-72
2021/11/29 03:11:35;;;;;;;;;;;;;;;8.77;100.00;98381.98;1752218;82;20150;-72
2021/11/29 03:14:05;;;;;;;;;;;;;;;8.76;100.00;98374.86;1752133;82;20561;-71
2021/11/29 03:16:33;;;;;;;;;;;;;;;8.75;100.00;98360.08;1752108;82;20190;-70
2021/11/29 03:19:01;;;;;;;;;;;;;;;8.74;100.00;98359.78;1752183;82;20189;-70
2021/11/29 03:21:30;;;;;;;;;;;;;;;8.74;99.92;98357.89;1752109;82;20197;-70
2021/11/29 03:23:59;;;;;;;;;;;;;;;8.72;99.84;98354.56;1752551;81;20153;-71
2021/11/29 03:26:28;;;;;;;;;;;;;;;8.73;99.82;98348.03;1750985;82;20246;-71
2021/11/29 03:28:58;;;;;;;;;;;;;;;8.72;99.83;98351.00;1749507;82;20265;-69
2021/11/29 03:31:29;;;;;;;;;;;;;;;8.71;99.83;98343.34;1749458;82;20476;-71
2021/11/29 03:33:58;;;;;;;;;;;;;;;8.72;99.75;98335.98;1749481;82;20248;-71
2021/11/29 03:36:28;;;;;;;;;;;;;;;8.73;99.65;98321.27;1749418;82;20154;-70
2021/11/29 03:38:57;;;;;;;;;;;;;;;8.73;99.64;98311.17;1749507;82;20201;-71
2021/11/29 03:41:25;;;;;;;;;;;;;;;8.72;99.62;98316.34;1749782;82;20169;-72
2021/11/29 03:43:53;;;;;;;;;;;;;;;8.71;99.61;98315.21;1749459;82;20161;-72
2021/11/29 03:46:22;;;;;;;;;;;;;;;8.72;99.60;98316.87;1749928;82;20193;-70
2021/11/29 03:48:50;;;;;;;;;;;;;;;8.73;99.50;98312.54;1749445;82;20161;-70
2021/11/29 03:51:18;;;;;;;;;;;;;;;8.74;99.43;98301.92;1749437;82;20149;-71
2021/11/29 03:53:47;;;;;;;;;;;;;;;8.73;99.38;98298.89;1749579;82;20158;-71
2021/11/29 03:56:15;;;;;;;;;;;;;;;8.73;99.40;98301.63;1749416;82;20173;-70
2021/11/29 03:58:43;;;;;;;;;;;;;;;8.74;99.38;98296.98;1749451;82;20178;-70
2021/11/29 04:01:12;;;;;;;;;;;;;;;8.73;99.33;98293.97;1749612;82;20205;-71
2021/11/29 04:03:40;;;;;;;;;;;;;;;8.74;99.27;98283.34;1749694;82;20537;-71
2021/11/29 04:06:09;;;;;;;;;;;;;;;8.74;99.21;98287.44;1749691;82;20181;-72
2021/11/29 04:08:38;;;;;;;;;;;;;;;8.75;99.14;98282.27;1749455;82;20161;-71
2021/11/29 04:11:06;;;;;;;;;;;;;;;8.74;99.11;98281.98;1749438;82;20169;-70
2021/11/29 04:13:35;;;;;;;;;;;;;;;8.72;99.07;98281.38;1749454;82;20153;-70
2021/11/29 04:16:04;;;;;;;;;;;;;;;8.71;99.05;98283.81;1749426;82;20154;-72
2021/11/29 04:18:37;;;;;;;;;;;;;;;8.70;98.99;98272.06;1749695;82;20201;-72
2021/11/29 04:21:06;;;;;;;;;;;;;;;8.72;98.96;98262.27;1749458;82;20146;-71
2021/11/29 04:23:35;;;;;;;;;;;;;;;8.72;98.93;98260.91;1748742;82;20173;-72
2021/11/29 04:26:04;;;;;;;;;;;;;;;8.73;98.93;98260.67;1742045;82;20209;-70
2021/11/29 04:28:34;;;;;;;;;;;;;;;8.73;98.94;98247.02;1742078;82;20157;-72
2021/11/29 04:31:02;;;;;;;;;;;;;;;8.72;98.88;98260.91;1742037;82;20185;-70
2021/11/29 04:33:35;;;;;;;;;;;;;;;8.72;98.79;98255.45;1742092;82;20181;-70
2021/11/29 04:36:04;;;;;;;;;;;;;;;8.72;98.75;98248.09;1742085;82;20475;-70
2021/11/29 04:38:34;;;;;;;;;;;;;;;8.74;98.69;98254.14;1742095;82;20170;-70
2021/11/29 04:41:03;;;;;;;;;;;;;;;8.74;98.66;98248.68;1742003;81;20523;-72
2021/11/29 04:43:31;;;;;;;;;;;;;;;8.73;98.59;98257.94;1742036;82;20182;-70
2021/11/29 04:45:59;;;;;;;;;;;;;;;8.72;98.56;98258.18;1742352;82;20233;-72
2021/11/29 04:48:28;;;;;;;;;;;;;;;8.72;98.52;98258.18;1742082;81;20554;-70
2021/11/29 04:50:56;;;;;;;;;;;;;;;8.73;98.42;98257.11;1742081;82;20222;-71
2021/11/29 04:53:25;;;;;;;;;;;;;;;8.74;98.35;98246.48;1741998;82;20471;-71
2021/11/29 04:55:53;;;;;;;;;;;;;;;8.74;98.33;98239.66;1742345;82;20472;-70
2021/11/29 04:58:22;;;;;;;;;;;;;;;8.74;98.33;98244.59;1742006;82;20181;-71
2021/11/29 05:00:52;;;;;;;;;;;;;;;8.73;98.30;98229.81;1742049;82;20210;-71
2021/11/29 05:03:22;;;;;;;;;;;;;;;8.74;98.26;98239.66;1742036;81;20142;-71
2021/11/29 05:05:50;;;;;;;;;;;;;;;8.76;98.20;98242.98;1742010;82;20209;-71
2021/11/29 05:08:21;;;;;;;;;;;;;;;8.78;98.16;98241.67;1742448;82;20293;-70
2021/11/29 05:10:49;;;;;;;;;;;;;;;8.81;98.12;98240.36;1741992;82;20205;-71
2021/11/29 05:13:18;;;;;;;;;;;;;;;8.80;98.05;98233.24;1741951;82;20218;-72
2021/11/29 05:15:47;;;;;;;;;;;;;;;8.78;98.00;98229.92;1742035;82;20169;-70
2021/11/29 05:18:15;;;;;;;;;;;;;;;8.79;97.98;98231.58;1741909;82;20241;-71
2021/11/29 05:20:44;;;;;;;;;;;;;;;8.80;97.92;98220.42;1742041;82;20196;-71
2021/11/29 05:23:12;;;;;;;;;;;;;;;8.81;97.79;98218.52;1739844;81;20214;-71
2021/11/29 05:25:40;;;;;;;;;;;;;;;8.80;97.67;98210.04;1708625;84;20220;-72
2021/11/29 05:28:09;;;;;;;;;;;;;;;8.80;97.73;98207.30;1708828;84;20200;-71
2021/11/29 05:30:37;;;;;;;;;;;;;;;8.81;97.74;98206.23;1711045;84;20193;-71
2021/11/29 05:33:05;;;;;;;;;;;;;;;8.80;97.63;98210.04;1711286;82;20212;-70
2021/11/29 05:35:33;;;;;;;;;;;;;;;8.81;97.54;98207.60;1711231;84;20177;-70
2021/11/29 05:38:01;;;;;;;;;;;;;;;8.82;97.48;98209.27;1710859;84;20578;-73
2021/11/29 05:40:30;;;;;;;;;;;;;;;8.82;97.39;98211.45;1710956;82;20164;-72
2021/11/29 05:42:58;;;;;;;;;;;;;;;8.81;97.38;98219.35;1710987;82;20228;-71
2021/11/29 05:45:26;;;;;;;;;;;;;;;8.82;97.37;98224.28;1711121;82;20165;-71
2021/11/29 05:47:54;;;;;;;;;;;;;;;8.83;97.26;98220.48;1711065;82;20591;-72
2021/11/29 05:50:23;;;;;;;;;;;;;;;8.86;97.16;98233.66;1711315;82;20450;-70
2021/11/29 05:52:51;;;;;;;;;;;;;;;8.86;97.04;98231.75;1711201;82;20494;-72
2021/11/29 05:55:20;;;;;;;;;;;;;;;8.85;96.98;98226.00;1710842;84;20475;-71
2021/11/29 05:57:50;;;;;;;;;;;;;;;8.84;96.92;98220.77;1711048;83;20157;-72
2021/11/29 06:00:18;;;;;;;;;;;;;;;8.82;96.88;98215.55;1710827;82;20217;-71
2021/11/29 06:02:47;;;;;;;;;;;;;;;8.82;96.87;98212.83;1710913;84;20212;-72
2021/11/29 06:05:16;;;;;;;;;;;;;;;8.85;96.78;98203.32;1711151;84;20243;-71
2021/11/29 06:07:44;;;;;;;;;;;;;;;8.87;96.67;98210.73;1711006;84;20212;-71
2021/11/29 06:10:13;;;;;;;;;;;;;;;8.88;96.59;98204.20;1711037;84;20214;-71
2021/11/29 06:12:43;;;;;;;;;;;;;;;8.88;96.54;98202.84;1711113;82;20248;-71
2021/11/29 06:15:12;;;;;;;;;;;;;;;8.88;96.51;98198.20;1711070;82;20184;-71
2021/11/29 06:17:42;;;;;;;;;;;;;;;8.87;96.45;98195.19;1711158;84;20207;-71
2021/11/29 06:20:19;;;;;;;;;;;;;;;8.90;96.36;98196.60;1691444;84;20161;-71
2021/11/29 06:22:44;;;;;;;;;;;;;;;8.91;96.20;98190.07;1710955;84;20183;-72
2021/11/29 06:25:12;;;;;;;;;;;;;;;8.90;96.10;98194.70;1741909;82;20185;-71
2021/11/29 06:27:40;;;;;;;;;;;;;;;8.90;96.01;98193.34;1749555;82;20197;-72
2021/11/29 06:30:10;;;;;;;;;;;;;;;8.89;95.94;98197.14;1749352;82;20154;-72
2021/11/29 06:32:40;;;;;;;;;;;;;;;8.90;95.94;98207.52;1749499;82;20145;-72
2021/11/29 06:35:09;;;;;;;;;;;;;;;8.89;95.87;98201.23;1749725;82;20189;-73
2021/11/29 06:37:37;;;;;;;;;;;;;;;8.88;95.74;98193.28;1749334;82;20487;-72
2021/11/29 06:40:08;;;;;;;;;;;;;;;8.90;95.65;98187.05;1749407;82;20146;-72
2021/11/29 06:42:38;;;;;;;;;;;;;;;8.91;95.63;98187.34;1749501;82;20157;-72
2021/11/29 06:45:07;;;;;;;;;;;;;;;8.93;95.55;98178.38;1749543;82;20201;-72
2021/11/29 06:47:40;;;;;;;;;;;;;;;8.93;95.49;98172.91;1749413;82;20158;-71
2021/11/29 06:50:08;;;;;;;;;;;;;;;8.92;95.50;98168.52;1749689;82;20162;-73
2021/11/29 06:52:38;;;;;;;;;;;;;;;8.94;95.47;98166.38;1749399;82;20169;-72
2021/11/29 06:55:06;;;;;;;;;;;;;;;8.98;95.39;98157.16;1749534;82;20557;-73
2021/11/29 06:57:35;;;;;;;;;;;;;;;8.99;95.18;98163.75;1749561;82;20213;-71
2021/11/29 07:00:05;;;;;;;;;;;;;;;9.00;95.13;98146.29;1749492;82;20205;-72
2021/11/29 07:02:33;;;;;;;;;;;;;;;9.00;95.03;98140.83;1749292;82;20154;-73
2021/11/29 07:05:02;;;;;;;;;;;;;;;9.00;95.00;98135.36;1749581;82;20157;-73
2021/11/29 07:07:30;;;;;;;;;;;;;;;9.00;94.91;98138.09;1749429;82;20222;-71
2021/11/29 07:09:59;;;;;;;;;;;;;;;8.99;94.81;98124.14;1749314;82;20543;-72
2021/11/29 07:12:27;;;;;;;;;;;;;;;9.01;94.75;98109.71;1749334;82;20265;-72
2021/11/29 07:14:55;;;;;;;;;;;;;;;9.03;94.64;98109.47;1749298;82;20150;-73
2021/11/29 07:17:24;;;;;;;;;;;;;;;9.05;94.60;98095.86;1749235;82;20221;-71
2021/11/29 07:19:54;;;;;;;;;;;;;;;9.06;94.54;98094.78;1749456;82;20165;-73
2021/11/29 07:22:24;;;;;;;;;;;;;;;9.08;94.54;98089.91;1749468;82;20193;-72
2021/11/29 07:24:53;;;;;;;;;;;;;;;9.08;94.55;98095.37;1744367;82;20169;-73
2021/11/29 07:27:23;;;;;;;;;;;;;;;9.11;94.51;98093.55;1739331;82;20269;-70
2021/11/29 07:29:54;;;;;;;;;;;;;;;9.12;94.45;98084.28;1726110;83;20216;-73
2021/11/29 07:32:23;;;;;;;;;;;;;;;9.17;94.35;98084.38;1718925;83;20227;-73
2021/11/29 07:34:52;;;;;;;;;;;;;;;9.20;94.26;98086.61;1723088;82;20223;-73
2021/11/29 07:37:21;;;;;;;;;;;;;;;9.23;94.26;98083.09;1741909;81;20165;-72
2021/11/29 07:39:49;;;;;;;;;;;;;;;9.24;94.28;98073.29;1742031;82;20449;-74
2021/11/29 07:42:17;;;;;;;;;;;;;;;9.28;94.31;98068.98;1741996;81;20178;-71
2021/11/29 07:44:46;;;;;;;;;;;;;;;9.30;94.25;98070.11;1742020;82;20202;-72
2021/11/29 07:47:14;;;;;;;;;;;;;;;9.33;94.17;98070.44;1742027;82;20488;-73
2021/11/29 07:49:43;;;;;;;;;;;;;;;9.38;94.07;98069.70;1742253;82;20170;-72
2021/11/29 07:52:13;;;;;;;;;;;;;;;9.42;93.98;98080.43;1742030;82;20463;-73
2021/11/29 07:54:42;;;;;;;;;;;;;;;9.44;93.79;98071.45;1741984;82;20193;-73
2021/11/29 07:57:12;;;;;;;;;;;;;;;9.45;93.76;98071.73;1741840;82;20201;-72
2021/11/29 07:59:42;;;;;;;;;;;;;;;9.47;93.65;98068.22;1742052;82;20270;-71
2021/11/29 08:02:14;;;;;;;;;;;;;;;9.47;93.56;98068.22;1742075;82;20166;-72
2021/11/29 08:04:43;;;;;;;;;;;;;;;9.49;93.52;98068.27;1742029;81;20488;-75
2021/11/29 08:07:11;;;;;;;;;;;;;;;9.53;93.41;98061.22;1741969;82;20185;-72
2021/11/29 08:09:40;;;;;;;;;;;;;;;9.54;93.20;98050.58;1742327;82;20461;-71
2021/11/29 08:12:08;;;;;;;;;;;;;;;9.54;93.16;98044.28;1741929;82;20193;-73
2021/11/29 08:14:36;;;;;;;;;;;;;;;9.53;93.14;98044.82;1741992;82;20158;-73
2021/11/29 08:17:06;;;;;;;;;;;;;;;9.52;93.11;98039.60;1742106;82;20146;-74
2021/11/29 08:19:36;;;;;;;;;;;;;;;9.54;93.13;98038.81;1741920;82;20456;-73
2021/11/29 08:22:05;;;;;;;;;;;;;;;9.56;93.09;98027.09;1742097;82;20174;-73
2021/11/29 08:24:33;;;;;;;;;;;;;;;9.59;93.05;98007.46;1745026;82;20486;-73
2021/11/29 08:27:02;;;;;;;;;;;;;;;9.61;93.04;98003.94;1749711;82;20263;-73
2021/11/29 08:29:30;;;;;;;;;;;;;;;9.61;93.04;97997.11;1749525;82;20577;-73
2021/11/29 08:32:00;;;;;;;;;;;;;;;9.60;93.05;97996.81;1749305;82;20544;-72
2021/11/29 08:34:29;;;;;;;;;;;;;;;9.62;93.11;97990.56;1749358;82;20620;-73
2021/11/29 08:36:57;;;;;;;;;;;;;;;9.65;93.13;97981.86;1749353;82;20226;-71
2021/11/29 08:39:26;;;;;;;;;;;;;;;9.67;93.15;97962.47;1749264;82;20490;-73
2021/11/29 08:41:54;;;;;;;;;;;;;;;9.69;93.20;97962.50;1749543;82;20157;-73
2021/11/29 08:44:23;;;;;;;;;;;;;;;9.71;93.26;97954.88;1749488;82;20181;-73
2021/11/29 08:46:51;;;;;;;;;;;;;;;9.72;93.35;97943.41;1749449;82;20218;-73
2021/11/29 08:49:20;;;;;;;;;;;;;;;9.72;93.40;97944.23;1749711;82;20149;-73
2021/11/29 08:51:48;;;;;;;;;;;;;;;9.74;93.44;97927.03;1749495;82;20460;-72
2021/11/29 08:54:16;;;;;;;;;;;;;;;9.76;93.47;97918.06;1749402;82;20193;-73
2021/11/29 08:56:46;;;;;;;;;;;;;;;9.75;93.58;97911.45;1749472;82;20475;-72
2021/11/29 08:59:17;;;;;;;;;;;;;;;9.74;93.77;97901.59;1749367;82;20166;-73
2021/11/29 09:01:45;;;;;;;;;;;;;;;9.73;93.98;97898.58;1749362;82;20237;-73
2021/11/29 09:04:16;;;;;;;;;;;;;;;9.72;94.18;97894.19;1749410;82;20185;-73
2021/11/29 09:06:44;;;;;;;;;;;;;;;9.72;94.36;97885.45;1749353;82;20472;-73
2021/11/29 09:09:12;;;;;;;;;;;;;;;9.73;94.51;97887.64;1749336;82;20209;-73
2021/11/29 09:11:40;;;;;;;;;;;;;;;9.73;94.72;97876.16;1749486;82;20448;-73
2021/11/29 09:14:09;;;;;;;;;;;;;;;9.75;94.94;97863.61;1749460;82;20213;-73
2021/11/29 09:16:37;;;;;;;;;;;;;;;9.77;95.09;97860.94;1749302;82;20214;-69
2021/11/29 09:19:06;;;;;;;;;;;;;;;9.78;95.24;97862.59;1738042;82;20170;-64
2021/11/29 09:21:35;;;;;;;;;;;;;;;9.79;95.39;97860.14;1732610;83;20218;-67
2021/11/29 09:24:06;;;;;;;;;;;;;;;9.81;95.48;97859.34;1742733;82;20221;-68
2021/11/29 09:26:36;;;;;;;;;;;;;;;9.87;95.56;97863.50;1766814;81;20179;-64
2021/11/29 09:29:07;;;;;;;;;;;;;;;9.89;95.63;97847.67;1753619;81;20199;-64
2021/11/29 09:31:35;;;;;;;;;;;;;;;9.92;95.74;97837.58;1753827;81;20515;-64
2021/11/29 09:34:04;;;;;;;;;;;;;;;9.94;95.82;97835.42;1754155;82;20157;-64
2021/11/29 09:36:33;;;;;;;;;;;;;;;9.96;95.92;97832.71;1754084;82;20222;-64
2021/11/29 09:39:03;;;;;;;;;;;;;;;10.01;95.96;97827.84;1754098;82;20491;-64
2021/11/29 09:41:32;;;;;;;;;;;;;;;10.03;95.90;97820.20;1754243;82;20234;-64
2021/11/29 09:44:01;;;;;;;;;;;;;;;10.05;95.89;97809.83;1754138;82;20200;-64
2021/11/29 09:46:30;;;;;;;;;;;;;;;10.07;95.88;97807.12;1754126;82;20236;-65
2021/11/29 09:48:59;;;;;;;;;;;;;;;10.06;95.93;97797.26;1754176;82;20590;-64
2021/11/29 09:51:29;;;;;;;;;;;;;;;10.05;95.90;97792.05;1753573;82;20189;-65
2021/11/29 09:53:58;;;;;;;;;;;;;;;10.07;95.93;97784.41;1754460;81;20206;-63
2021/11/29 09:56:27;;;;;;;;;;;;;;;10.08;95.92;97767.73;1754435;82;20157;-64
2021/11/29 09:58:57;;;;;;;;;;;;;;;10.07;95.80;97763.34;1754221;82;20197;-64
